Heino, Netherlands
Current Conditions -  °F | °C
As of 8:25 PM on Friday 24 Oct 2014 (Local Time) from EHDL Reporting Station
Drizzle Drizzle  
Wind Chill: 52°   Ceiling: 1300
Heat Index: 52°   Visibility: 3mi
Dew Point: 50°   Wind: 10mph
Humidity: 94%   Direction: 190°S
Pressure: 30"   Gusts: NA
Location:  52.44°N, 6.23°E
Report Text: EHDL 241825Z AUTO 19009KT 5000 DZ SCT011 BKN013 OVC015 11/10 Q1016 GRN
Loading
Personal Weather Stations






























Interactive Weather Map
Tropical Storm Tracking
New forecast layout! Learn more

10-Day Weather Forecast

Advertisements
Track Severe Weather on mobile